Nord Supreme — OWPB2 — position and weather

sailwx.info

Track history (hours):
 
Tides and Currents Weather Stations Pressure Air Temp Water Temp Dewpoint Dewpoint Depression Visibility Wind Speed Wind Dir Waves Ship Positions

Nord Supreme

Last reported at 2018-Jan-20 07:19 UTC. Time now 2018-Jan-20 21:05 UTC.
Position N 45°36' W 125°15'.

Length 182 m; draft 12.5 m.

Type: Ship. MMSI: 219602000.

Date/timePositionNaut miles runAvg speedWind from/ knotsBaromVisibWave heightAir tempDewpointWater temp
2018-Jan-20 07:19N 45°36' W 125°15'511.3
2018-Jan-20 06:52N 45°41' W 125°16'411.3
2018-Jan-20 06:30N 45°45' W 125°16'611.1
2018-Jan-20 06:00N 45°50' W 125°16'611.0
2018-Jan-20 05:30N 45°56' W 125°16'611.0
2018-Jan-20 04:56N 46°02' W 125°16'511.1
2018-Jan-20 04:30N 46°07' W 125°16'611.0
2018-Jan-20 04:00N 46°13' W 125°16'611.2
2018-Jan-20 03:30N 46°18' W 125°16'611.2
2018-Jan-20 03:00N 46°24' W 125°16'611.0
2018-Jan-20 02:30N 46°29' W 125°16'510.9
2018-Jan-20 02:00N 46°35' W 125°16'611.1
2018-Jan-20 01:30N 46°40' W 125°16'511.1
2018-Jan-20 01:00N 46°46' W 125°16'911.1
2018-Jan-20 00:10N 46°55' W 125°17'76 9.7
2018-Jan-19 16:21N 48°11' W 125°15'2 7.0
2018-Jan-19 16:00N 48°13' W 125°13'10 7.9
2018-Jan-19 14:44N 48°22' W 125°09'2 8.0
2018-Jan-19 14:30N 48°24' W 125°09'4 8.2
2018-Jan-19 14:00N 48°27' W 125°05'4 8.1
2018-Jan-19 13:28N 48°31' W 125°01'4 9.1
2018-Jan-19 13:00N 48°31' W 124°54'4 8.6
2018-Jan-19 12:30N 48°31' W 124°48'4 8.3
2018-Jan-19 12:00N 48°30' W 124°42'5 8.7
2018-Jan-19 11:28N 48°29' W 124°35'4 9.4
2018-Jan-19 11:00N 48°27' W 124°29'5 9.2
2018-Jan-19 10:30N 48°25' W 124°23'510.5
2018-Jan-19 10:00N 48°23' W 124°16'511.0
2018-Jan-19 09:30N 48°21' W 124°08'611.3
2018-Jan-19 09:00N 48°19' W 124°00'611.7
2018-Jan-19 08:30N 48°17' W 123°52'611.9
2018-Jan-19 08:00N 48°16' W 123°43'713.9
2018-Jan-19 07:29N 48°14' W 123°32'610.2
2018-Jan-19 06:55N 48°12' W 123°25'3 7.8
2018-Jan-19 06:30N 48°09' W 123°23'2 2.4
2018-Jan-19 05:49N 48°08' W 123°25'0 0.1
2018-Jan-19 05:28N 48°08' W 123°25'0 0.0
2018-Jan-18 18:07N 48°08' W 123°25'0 0.2
2018-Jan-18 17:52N 48°08' W 123°25'0 0.2
2018-Jan-18 16:58N 48°08' W 123°25'0 0.0
2018-Jan-18 16:27N 48°08' W 123°25'0 0.0
2018-Jan-18 14:28N 48°08' W 123°25'0 0.1
2018-Jan-18 13:06N 48°08' W 123°25'0 0.5
2018-Jan-18 13:00N 48°08' W 123°25'1 1.1
2018-Jan-18 12:30N 48°08' W 123°24'2 4.0
2018-Jan-18 12:00N 48°09' W 123°21'4 7.4
2018-Jan-18 11:27N 48°11' W 123°16'510.8
2018-Jan-18 10:58N 48°14' W 123°10'610.3
2018-Jan-18 10:24N 48°18' W 123°04'410.4
2018-Jan-18 10:00N 48°20' W 122°58'510.4
2018-Jan-18 09:30N 48°23' W 122°52'5 9.6
2018-Jan-18 09:00N 48°26' W 122°46'5 9.4
2018-Jan-18 08:30N 48°31' W 122°44'611.2
2018-Jan-18 08:00N 48°36' W 122°46'4 9.1
2018-Jan-18 07:31N 48°40' W 122°44'610.7
2018-Jan-18 06:58N 48°46' W 122°46'510.0
2018-Jan-18 06:30N 48°51' W 122°46'  
2018-Jan-12 15:00N 32°55' W 124°29'813.7
2018-Jan-12 14:25N 32°48' W 124°24'613.5
2018-Jan-12 14:00N 32°43' W 124°20'713.5
2018-Jan-12 13:30N 32°38' W 124°16'713.3
2018-Jan-12 13:00N 32°32' W 124°12'713.4
2018-Jan-12 12:30N 32°26' W 124°08'1013.4
2018-Jan-12 11:47N 32°18' W 124°02'513.5
2018-Jan-12 11:22N 32°13' W 123°59'  
Track history (hours):
 
Tides and Currents Weather Stations Pressure Air Temp Water Temp Dewpoint Dewpoint Depression Visibility Wind Speed Wind Dir Waves Ship Positions

Nord Supreme

Last reported at 2018-Jan-20 07:19 UTC. Time now 2018-Jan-20 21:05 UTC.
Position N 45°36' W 125°15'.

Length 182 m; draft 12.5 m.

Type: Ship. MMSI: 219602000.

Date/timePositionNaut miles runAvg speedWind from/ knotsBaromVisibWave heightAir tempDewpointWater temp
2018-Jan-20 07:19N 45°36' W 125°15'511.3
2018-Jan-20 06:52N 45°41' W 125°16'411.3
2018-Jan-20 06:30N 45°45' W 125°16'611.1
2018-Jan-20 06:00N 45°50' W 125°16'611.0
2018-Jan-20 05:30N 45°56' W 125°16'611.0
2018-Jan-20 04:56N 46°02' W 125°16'511.1
2018-Jan-20 04:30N 46°07' W 125°16'611.0
2018-Jan-20 04:00N 46°13' W 125°16'611.2
2018-Jan-20 03:30N 46°18' W 125°16'611.2
2018-Jan-20 03:00N 46°24' W 125°16'611.0
2018-Jan-20 02:30N 46°29' W 125°16'510.9
2018-Jan-20 02:00N 46°35' W 125°16'611.1
2018-Jan-20 01:30N 46°40' W 125°16'511.1
2018-Jan-20 01:00N 46°46' W 125°16'911.1
2018-Jan-20 00:10N 46°55' W 125°17'76 9.7
2018-Jan-19 16:21N 48°11' W 125°15'2 7.0
2018-Jan-19 16:00N 48°13' W 125°13'10 7.9
2018-Jan-19 14:44N 48°22' W 125°09'2 8.0
2018-Jan-19 14:30N 48°24' W 125°09'4 8.2
2018-Jan-19 14:00N 48°27' W 125°05'4 8.1
2018-Jan-19 13:28N 48°31' W 125°01'4 9.1
2018-Jan-19 13:00N 48°31' W 124°54'4 8.6
2018-Jan-19 12:30N 48°31' W 124°48'4 8.3
2018-Jan-19 12:00N 48°30' W 124°42'5 8.7
2018-Jan-19 11:28N 48°29' W 124°35'4 9.4
2018-Jan-19 11:00N 48°27' W 124°29'5 9.2
2018-Jan-19 10:30N 48°25' W 124°23'510.5
2018-Jan-19 10:00N 48°23' W 124°16'511.0
2018-Jan-19 09:30N 48°21' W 124°08'611.3
2018-Jan-19 09:00N 48°19' W 124°00'611.7
2018-Jan-19 08:30N 48°17' W 123°52'611.9
2018-Jan-19 08:00N 48°16' W 123°43'713.9
2018-Jan-19 07:29N 48°14' W 123°32'610.2
2018-Jan-19 06:55N 48°12' W 123°25'3 7.8
2018-Jan-19 06:30N 48°09' W 123°23'2 2.4
2018-Jan-19 05:49N 48°08' W 123°25'0 0.1
2018-Jan-19 05:28N 48°08' W 123°25'0 0.0
2018-Jan-18 18:07N 48°08' W 123°25'0 0.2
2018-Jan-18 17:52N 48°08' W 123°25'0 0.2
2018-Jan-18 16:58N 48°08' W 123°25'0 0.0
2018-Jan-18 16:27N 48°08' W 123°25'0 0.0
2018-Jan-18 14:28N 48°08' W 123°25'0 0.1
2018-Jan-18 13:06N 48°08' W 123°25'0 0.5
2018-Jan-18 13:00N 48°08' W 123°25'1 1.1
2018-Jan-18 12:30N 48°08' W 123°24'2 4.0
2018-Jan-18 12:00N 48°09' W 123°21'4 7.4
2018-Jan-18 11:27N 48°11' W 123°16'510.8
2018-Jan-18 10:58N 48°14' W 123°10'610.3
2018-Jan-18 10:24N 48°18' W 123°04'410.4
2018-Jan-18 10:00N 48°20' W 122°58'510.4
2018-Jan-18 09:30N 48°23' W 122°52'5 9.6
2018-Jan-18 09:00N 48°26' W 122°46'5 9.4
2018-Jan-18 08:30N 48°31' W 122°44'611.2
2018-Jan-18 08:00N 48°36' W 122°46'4 9.1
2018-Jan-18 07:31N 48°40' W 122°44'610.7
2018-Jan-18 06:58N 48°46' W 122°46'510.0
2018-Jan-18 06:30N 48°51' W 122°46'  
2018-Jan-12 15:00N 32°55' W 124°29'813.7
2018-Jan-12 14:25N 32°48' W 124°24'613.5
2018-Jan-12 14:00N 32°43' W 124°20'713.5
2018-Jan-12 13:30N 32°38' W 124°16'713.3
2018-Jan-12 13:00N 32°32' W 124°12'713.4
2018-Jan-12 12:30N 32°26' W 124°08'1013.4
2018-Jan-12 11:47N 32°18' W 124°02'513.5
2018-Jan-12 11:22N 32°13' W 123°59'  

Dump ship's entire track history